Aérodrome :
LOGIN :

S'inscrire | Disclaimer

   EN    FR    IT 

 










Légende :    VFR   VFR Marginal   IFR   IFR Intensif   IFR Très Intensif
Visi : 
Plafond : 
>= 8 km
>= 3000ft
5 à 8 km
1000 à 3000 ft
1500m à 5 km
500 à 1000 ft
800 à 1500m
200 à 500 ft
< 800m
< 200 ft
Symboles :   Orages  Brouillard  Fortes neiges  Fortes précipitations  Vent > 20 kt
SIGMETs :   Divers  Orages  Givrage  Turbulence  Onde Orograph.  Cendres Volcan.







- Altitude de l'aérodrome : 87 ft
- Code IATA : FSC
- Voir les cartes d'approche


LFKF - Figari

DERNIER METAR :
  • 280300Z AUTO 26005KT 9999 -DZ OVC019/// 11/09 Q1013 NOSIG

METARs EXPIRÉS :
  • 280230Z AUTO 25005KT 9999 -RADZ BKN021/// OVC030/// 11/09 Q1013 NOSIG
  • 280200Z AUTO 23005KT 9999 FEW030/// OVC038/// 10/08 Q1014
  • 280130Z AUTO 21005KT 9999 FEW031/// BKN042/// 10/08 Q1014
  • 280100Z AUTO 25007KT 9999 SCT032/// BKN042/// 10/08 Q1015
  • 280030Z AUTO 24005KT 9999 FEW027/// SCT034/// BKN041/// 09/07 Q1015

TAF TAF LFKF
Valide du 28 à 03h jusqu'au 01 à 03h UTC


280200Z 2803/0103 24010KT 9999 BKN035
BECMG 2810/2812 24020G30KT BKN020
TEMPO 2815/2824 RA
TEMPO 2821/2824 TSRA BKN035CB
Pas de NOTAMs connus pour ce terrain.
2 SIGMETs publiés pour la FIR Marseille (LFMM) :
 
Turbulence forte
LFMM SIGMET 9 VALID 280000/280400 LFPW
LFMM MARSEILLE FIR/UIR SEV TURB FCST N OF N4415 AND E OF E00515 SFC/FL120 STNR NC=
Orages noyés dans la masse
LFMM SIGMET 1 VALID 280200/280600 LFPW
LFMM MARSEILLE FIR/UIR EMBD TS FCST WI N4630 E00600 - N4630 E00700 - N4515 E00700 - N4515 E00500 TOP FL300 STNR NC=



MET'MAP, la Météo Aéronautique d'un coup d'oeil ! - Copyright ORBIFLY Décembre 2007 - Disclaimer

ORBIFLY MET'MAP TEAM :

Programmation & Développement : Alexandra Zaïnal
Conception & Développement : Baudouin d'Aumeries
Co-Programmation & Développement : Marc-Olivier Méhu
Soutien technique & logistique : Manuel Goepfert

Contact : metmap@orbifly.com




SOURCES & CREDITS :

   NOAA